메인 페이지
METAR-TAF:

METAR-TAF

공항 :

산후안, 푸에르토리코, 미국

위도: 18-27N, 경도: 066-00W, 고도: 3m

현재 날씨관측

예보는 19분 전, 18:56시(UTC)에 발표되었습니다.
11kt
온도 27°C
습도 84%
기압 1017 hPa
시정: 16.1km
고도 2200ft 상공 구름 보통
고도 4800ft 상공 구름 보통
고도 10000ft 상공 구름 많음

METAR: TJSJ 191856Z 08011KT 10SM SCT022 SCT048 BKN100 27/24 A3002 RMK AO2 SLP165 VCSH S-W T02720239 $

시각: 15:15 (19:15 UTC)

예보

예보는 1 시간 44분 전, 17:31시(UTC)에 발표되었습니다.
예보 대상 시간: 19일 18시부터 20일 18시까지 (UTC)
동북동13kt, 순간 최대 풍속 18kt
시정: 10km
고도 2600ft 상공 구름 조금
고도 3500ft 상공 구름 보통
고도 9000ft 상공 구름 보통
시계 내 소나기
19일 2300시부터 (UTC)
5kt
시정: 10km
고도 3000ft 상공 구름 보통
고도 8000ft 상공 구름 보통
20일 1400시부터 (UTC)
여러 방향의 바람 2kt
시정: 10km
고도 2400ft 상공 구름 조금
고도 3000ft 상공 구름 보통

TAF: TJSJ 191731Z 1918/2018 07013G18KT P6SM VCSH FEW026 SCT035 SCT090 FM192300 10005KT P6SM SCT030 SCT080 FM201400 VRB02KT P6SM FEW024 SCT030

4,000개 이상의 공항 관측 자료 및 예보 (METAR 및 TAF 보고).

지도상에서 검색 가능한 기상관측소가 노란 점과 빨간 점으로 표시되어 있습니다.

기상관측소 명을 보려면 표시 위로 마우스를 이동하세요.

날씨 관측과 예보를 보려면 클릭하세요.

지도 변경 : 확대하려면 엑스 표시가 있는 녹색 버튼, 축소하려면 빼기 표시가 있는 녹색 버튼, 다음 페이지의 지도를 보려면 녹색 화살표를 클릭하세요.


METAR-TAF: